Terminal Aerodrome Forecast
Issued by NWS Omaha/Valley, NE

Home | Current Version | Previous Version | Text Only | Print | Product List | Glossary On
Versions: 1 2 3 4 5 6 7 8 9 10 11 12 13 14 15 16 17 18 19 20 21 22 23 24 25 26 27 28 29
137
FTUS43 KOAX 271744 AAA
TAFOMA
TAF AMD
KOMA 271744Z 2718/2818 16010KT P6SM BKN100
     FM272200 15011KT P6SM BKN060
      TEMPO 2801/2803 BKN025
     FM280600 15006KT 4SM BR SCT009 BKN025
     FM281100 18006KT 4SM BR SCT007 BKN080
     FM281300 22006KT 4SM BR BKN070
     FM281500 28007KT P6SM BKN025=

USA.gov is the U.S. government's official web portal to all federal, state and local government web resources and services.